sensor_id;sensor_type;location;lat;lon;timestamp;pressure;altitude;pressure_sealevel;temperature;humidity
16451;BME280;12243;42.708;23.310;2023-04-25T00:01:38;94285.63;;;11.91;100.00
16451;BME280;12243;42.708;23.310;2023-04-25T00:04:05;94273.59;;;11.99;100.00
16451;BME280;12243;42.708;23.310;2023-04-25T00:06:32;94265.75;;;11.99;100.00
16451;BME280;12243;42.708;23.310;2023-04-25T00:09:01;94265.97;;;12.05;100.00
16451;BME280;12243;42.708;23.310;2023-04-25T00:11:29;94249.78;;;12.02;100.00
16451;BME280;12243;42.708;23.310;2023-04-25T00:13:57;94245.59;;;12.09;100.00
16451;BME280;12243;42.708;23.310;2023-04-25T00:16:25;94238.75;;;12.16;100.00
16451;BME280;12243;42.708;23.310;2023-04-25T00:18:52;94237.41;;;12.04;100.00
16451;BME280;12243;42.708;23.310;2023-04-25T00:21:20;94219.47;;;12.01;100.00
16451;BME280;12243;42.708;23.310;2023-04-25T00:23:47;94242.25;;;11.90;100.00
16451;BME280;12243;42.708;23.310;2023-04-25T00:26:14;94236.28;;;11.80;100.00
16451;BME280;12243;42.708;23.310;2023-04-25T00:28:41;94232.69;;;11.81;100.00
16451;BME280;12243;42.708;23.310;2023-04-25T00:31:09;94240.28;;;11.66;100.00
16451;BME280;12243;42.708;23.310;2023-04-25T00:33:36;94239.47;;;11.66;100.00
16451;BME280;12243;42.708;23.310;2023-04-25T00:36:04;94239.25;;;11.59;100.00
16451;BME280;12243;42.708;23.310;2023-04-25T00:38:30;94238.59;;;11.57;100.00
16451;BME280;12243;42.708;23.310;2023-04-25T00:40:57;94243.56;;;11.68;100.00
16451;BME280;12243;42.708;23.310;2023-04-25T00:43:25;94244.94;;;11.81;100.00
16451;BME280;12243;42.708;23.310;2023-04-25T00:45:53;94241.50;;;11.80;100.00
16451;BME280;12243;42.708;23.310;2023-04-25T00:48:22;94248.75;;;11.86;100.00
16451;BME280;12243;42.708;23.310;2023-04-25T00:50:52;94244.38;;;11.69;100.00
16451;BME280;12243;42.708;23.310;2023-04-25T00:53:19;94249.19;;;11.56;100.00
16451;BME280;12243;42.708;23.310;2023-04-25T00:55:47;94247.13;;;11.41;100.00
16451;BME280;12243;42.708;23.310;2023-04-25T00:58:16;94241.91;;;11.41;100.00
16451;BME280;12243;42.708;23.310;2023-04-25T01:00:44;94240.63;;;11.45;100.00
16451;BME280;12243;42.708;23.310;2023-04-25T01:03:12;94239.53;;;11.48;100.00
16451;BME280;12243;42.708;23.310;2023-04-25T01:05:41;94231.28;;;11.61;100.00
16451;BME280;12243;42.708;23.310;2023-04-25T01:08:08;94220.44;;;11.48;100.00
16451;BME280;12243;42.708;23.310;2023-04-25T01:10:35;94206.03;;;11.61;100.00
16451;BME280;12243;42.708;23.310;2023-04-25T01:13:03;94208.84;;;11.68;100.00
16451;BME280;12243;42.708;23.310;2023-04-25T01:15:30;94208.50;;;11.71;100.00
16451;BME280;12243;42.708;23.310;2023-04-25T01:17:58;94203.34;;;11.53;100.00
16451;BME280;12243;42.708;23.310;2023-04-25T01:20:26;94197.69;;;11.58;100.00
16451;BME280;12243;42.708;23.310;2023-04-25T01:22:57;94198.94;;;11.54;100.00
16451;BME280;12243;42.708;23.310;2023-04-25T01:25:24;94193.09;;;11.52;100.00
16451;BME280;12243;42.708;23.310;2023-04-25T01:27:51;94195.13;;;11.40;100.00
16451;BME280;12243;42.708;23.310;2023-04-25T01:30:18;94192.50;;;11.40;100.00
16451;BME280;12243;42.708;23.310;2023-04-25T01:32:46;94197.22;;;11.36;100.00
16451;BME280;12243;42.708;23.310;2023-04-25T01:35:14;94202.94;;;11.14;100.00
16451;BME280;12243;42.708;23.310;2023-04-25T01:37:41;94198.75;;;11.21;100.00
16451;BME280;12243;42.708;23.310;2023-04-25T01:40:12;94189.94;;;11.22;100.00
16451;BME280;12243;42.708;23.310;2023-04-25T01:42:42;94202.22;;;11.04;100.00
16451;BME280;12243;42.708;23.310;2023-04-25T01:45:09;94191.06;;;10.93;100.00
16451;BME280;12243;42.708;23.310;2023-04-25T01:47:37;94193.53;;;10.95;100.00
16451;BME280;12243;42.708;23.310;2023-04-25T01:50:07;94193.13;;;11.08;100.00
16451;BME280;12243;42.708;23.310;2023-04-25T01:52:35;94200.94;;;10.90;100.00
16451;BME280;12243;42.708;23.310;2023-04-25T01:55:03;94214.13;;;10.88;100.00
16451;BME280;12243;42.708;23.310;2023-04-25T01:57:34;94199.97;;;10.91;100.00
16451;BME280;12243;42.708;23.310;2023-04-25T02:00:04;94199.31;;;10.89;100.00
16451;BME280;12243;42.708;23.310;2023-04-25T02:02:38;94202.06;;;10.87;100.00
16451;BME280;12243;42.708;23.310;2023-04-25T02:05:12;94205.69;;;10.94;100.00
16451;BME280;12243;42.708;23.310;2023-04-25T02:07:41;94207.19;;;10.97;100.00
16451;BME280;12243;42.708;23.310;2023-04-25T02:10:09;94199.25;;;10.99;100.00
16451;BME280;12243;42.708;23.310;2023-04-25T02:12:49;94202.22;;;11.04;100.00
16451;BME280;12243;42.708;23.310;2023-04-25T02:15:26;94196.31;;;11.02;100.00
16451;BME280;12243;42.708;23.310;2023-04-25T02:17:57;94198.63;;;11.05;100.00
16451;BME280;12243;42.708;23.310;2023-04-25T02:20:26;94187.25;;;11.06;100.00
16451;BME280;12243;42.708;23.310;2023-04-25T02:22:54;94174.81;;;11.00;100.00
16451;BME280;12243;42.708;23.310;2023-04-25T02:25:22;94177.72;;;10.96;100.00
16451;BME280;12243;42.708;23.310;2023-04-25T02:27:50;94173.78;;;10.92;100.00
16451;BME280;12243;42.708;23.310;2023-04-25T02:30:19;94174.44;;;10.94;100.00
16451;BME280;12243;42.708;23.310;2023-04-25T02:32:46;94162.41;;;10.93;100.00
16451;BME280;12243;42.708;23.310;2023-04-25T02:35:13;94168.19;;;10.87;100.00
16451;BME280;12243;42.708;23.310;2023-04-25T02:37:40;94157.56;;;10.99;100.00
16451;BME280;12243;42.708;23.310;2023-04-25T02:40:08;94156.53;;;10.91;100.00
16451;BME280;12243;42.708;23.310;2023-04-25T02:42:35;94153.84;;;10.83;100.00
16451;BME280;12243;42.708;23.310;2023-04-25T02:45:05;94156.09;;;10.78;100.00
16451;BME280;12243;42.708;23.310;2023-04-25T02:47:32;94168.16;;;10.79;100.00
16451;BME280;12243;42.708;23.310;2023-04-25T02:49:59;94149.56;;;10.74;100.00
16451;BME280;12243;42.708;23.310;2023-04-25T02:52:26;94151.78;;;10.69;100.00
16451;BME280;12243;42.708;23.310;2023-04-25T02:55:01;94143.16;;;10.68;100.00
16451;BME280;12243;42.708;23.310;2023-04-25T02:57:29;94148.81;;;10.64;100.00
16451;BME280;12243;42.708;23.310;2023-04-25T02:59:56;94152.38;;;10.63;100.00
16451;BME280;12243;42.708;23.310;2023-04-25T03:02:24;94148.13;;;10.62;100.00
16451;BME280;12243;42.708;23.310;2023-04-25T03:04:51;94147.59;;;10.76;100.00
16451;BME280;12243;42.708;23.310;2023-04-25T03:07:19;94152.06;;;10.66;100.00
16451;BME280;12243;42.708;23.310;2023-04-25T03:09:48;94145.53;;;10.62;100.00
16451;BME280;12243;42.708;23.310;2023-04-25T03:12:15;94139.28;;;10.55;100.00
16451;BME280;12243;42.708;23.310;2023-04-25T03:14:42;94142.78;;;10.63;100.00
16451;BME280;12243;42.708;23.310;2023-04-25T03:17:09;94151.84;;;10.59;100.00
16451;BME280;12243;42.708;23.310;2023-04-25T03:19:38;94151.03;;;10.59;100.00
16451;BME280;12243;42.708;23.310;2023-04-25T03:22:05;94143.00;;;10.70;100.00
16451;BME280;12243;42.708;23.310;2023-04-25T03:24:32;94146.50;;;10.79;100.00
16451;BME280;12243;42.708;23.310;2023-04-25T03:26:58;94140.16;;;10.63;100.00
16451;BME280;12243;42.708;23.310;2023-04-25T03:29:26;94139.47;;;10.53;100.00
16451;BME280;12243;42.708;23.310;2023-04-25T03:31:55;94132.97;;;10.57;100.00
16451;BME280;12243;42.708;23.310;2023-04-25T03:34:22;94148.09;;;10.54;100.00
16451;BME280;12243;42.708;23.310;2023-04-25T03:36:51;94137.66;;;10.54;100.00
16451;BME280;12243;42.708;23.310;2023-04-25T03:39:18;94136.84;;;10.71;100.00
16451;BME280;12243;42.708;23.310;2023-04-25T03:41:57;94131.84;;;10.60;100.00
16451;BME280;12243;42.708;23.310;2023-04-25T03:44:24;94138.25;;;10.47;100.00
16451;BME280;12243;42.708;23.310;2023-04-25T03:46:51;94140.19;;;10.45;100.00
16451;BME280;12243;42.708;23.310;2023-04-25T03:49:18;94138.63;;;10.53;100.00
16451;BME280;12243;42.708;23.310;2023-04-25T03:52:02;94139.44;;;10.71;100.00
16451;BME280;12243;42.708;23.310;2023-04-25T03:54:34;94138.00;;;10.77;100.00
16451;BME280;12243;42.708;23.310;2023-04-25T03:57:08;94143.28;;;10.85;100.00
16451;BME280;12243;42.708;23.310;2023-04-25T03:59:38;94148.03;;;10.89;100.00
16451;BME280;12243;42.708;23.310;2023-04-25T04:02:07;94149.78;;;11.07;100.00
16451;BME280;12243;42.708;23.310;2023-04-25T04:04:35;94150.81;;;11.14;100.00
16451;BME280;12243;42.708;23.310;2023-04-25T04:07:04;94156.38;;;11.45;100.00
16451;BME280;12243;42.708;23.310;2023-04-25T04:09:34;94148.38;;;11.73;100.00
16451;BME280;12243;42.708;23.310;2023-04-25T04:12:06;94146.53;;;11.99;100.00
16451;BME280;12243;42.708;23.310;2023-04-25T04:14:35;94143.22;;;12.39;100.00
16451;BME280;12243;42.708;23.310;2023-04-25T04:17:02;94156.59;;;12.45;100.00
16451;BME280;12243;42.708;23.310;2023-04-25T04:19:29;94135.72;;;12.45;100.00
16451;BME280;12243;42.708;23.310;2023-04-25T04:22:13;94149.94;;;12.42;100.00
16451;BME280;12243;42.708;23.310;2023-04-25T04:24:40;94151.06;;;12.31;100.00
16451;BME280;12243;42.708;23.310;2023-04-25T04:27:10;94144.69;;;12.42;100.00
16451;BME280;12243;42.708;23.310;2023-04-25T04:29:49;94145.19;;;12.46;100.00
16451;BME280;12243;42.708;23.310;2023-04-25T04:32:37;94152.84;;;12.39;100.00
16451;BME280;12243;42.708;23.310;2023-04-25T04:35:06;94148.63;;;12.38;100.00
16451;BME280;12243;42.708;23.310;2023-04-25T04:37:36;94144.84;;;12.40;100.00
16451;BME280;12243;42.708;23.310;2023-04-25T04:40:05;94146.47;;;12.25;100.00
16451;BME280;12243;42.708;23.310;2023-04-25T04:42:45;94147.09;;;12.19;100.00
16451;BME280;12243;42.708;23.310;2023-04-25T04:45:34;94150.00;;;12.08;100.00
16451;BME280;12243;42.708;23.310;2023-04-25T04:48:10;94161.75;;;12.04;100.00
16451;BME280;12243;42.708;23.310;2023-04-25T04:51:05;94164.34;;;12.04;100.00
16451;BME280;12243;42.708;23.310;2023-04-25T04:53:52;94160.63;;;12.14;100.00
16451;BME280;12243;42.708;23.310;2023-04-25T04:56:43;94169.56;;;12.04;100.00
16451;BME280;12243;42.708;23.310;2023-04-25T04:59:16;94173.97;;;12.03;100.00
16451;BME280;12243;42.708;23.310;2023-04-25T05:01:58;94162.06;;;12.09;100.00
16451;BME280;12243;42.708;23.310;2023-04-25T05:04:56;94168.56;;;11.97;100.00
16451;BME280;12243;42.708;23.310;2023-04-25T05:07:36;94174.28;;;12.00;100.00
16451;BME280;12243;42.708;23.310;2023-04-25T05:10:19;94173.78;;;11.97;100.00
16451;BME280;12243;42.708;23.310;2023-04-25T05:13:05;94187.16;;;12.02;100.00
16451;BME280;12243;42.708;23.310;2023-04-25T05:15:43;94187.16;;;12.02;100.00
16451;BME280;12243;42.708;23.310;2023-04-25T05:18:34;94180.94;;;11.95;100.00
16451;BME280;12243;42.708;23.310;2023-04-25T05:21:24;94191.44;;;12.11;100.00
16451;BME280;12243;42.708;23.310;2023-04-25T05:24:09;94168.59;;;12.13;100.00
16451;BME280;12243;42.708;23.310;2023-04-25T05:26:56;94186.41;;;12.18;100.00
16451;BME280;12243;42.708;23.310;2023-04-25T05:29:45;94177.59;;;12.19;100.00
16451;BME280;12243;42.708;23.310;2023-04-25T05:32:28;94174.81;;;12.20;100.00
16451;BME280;12243;42.708;23.310;2023-04-25T05:34:55;94177.59;;;12.19;100.00
16451;BME280;12243;42.708;23.310;2023-04-25T05:37:26;94175.50;;;12.30;100.00
16451;BME280;12243;42.708;23.310;2023-04-25T05:40:03;94163.13;;;12.32;100.00
16451;BME280;12243;42.708;23.310;2023-04-25T05:42:50;94162.81;;;12.35;100.00
16451;BME280;12243;42.708;23.310;2023-04-25T05:45:26;94169.84;;;12.43;100.00
16451;BME280;12243;42.708;23.310;2023-04-25T05:48:05;94166.59;;;12.57;100.00
16451;BME280;12243;42.708;23.310;2023-04-25T05:50:42;94167.75;;;12.71;100.00
16451;BME280;12243;42.708;23.310;2023-04-25T05:53:32;94173.63;;;12.81;100.00
16451;BME280;12243;42.708;23.310;2023-04-25T05:56:00;94166.78;;;12.97;100.00
16451;BME280;12243;42.708;23.310;2023-04-25T05:58:30;94166.31;;;13.01;100.00
16451;BME280;12243;42.708;23.310;2023-04-25T06:00:58;94171.69;;;13.16;100.00
16451;BME280;12243;42.708;23.310;2023-04-25T06:03:25;94173.50;;;13.24;100.00
16451;BME280;12243;42.708;23.310;2023-04-25T06:05:52;94176.59;;;13.36;100.00
16451;BME280;12243;42.708;23.310;2023-04-25T06:08:19;94173.63;;;13.47;100.00
16451;BME280;12243;42.708;23.310;2023-04-25T06:10:46;94172.31;;;13.51;100.00
16451;BME280;12243;42.708;23.310;2023-04-25T06:13:13;94171.66;;;13.49;100.00
16451;BME280;12243;42.708;23.310;2023-04-25T06:15:42;94170.66;;;13.58;100.00
16451;BME280;12243;42.708;23.310;2023-04-25T06:18:10;94173.56;;;13.63;100.00
16451;BME280;12243;42.708;23.310;2023-04-25T06:20:38;94183.38;;;13.69;100.00
16451;BME280;12243;42.708;23.310;2023-04-25T06:23:05;94187.66;;;13.62;100.00
16451;BME280;12243;42.708;23.310;2023-04-25T06:25:47;94188.31;;;13.56;100.00
16451;BME280;12243;42.708;23.310;2023-04-25T06:28:14;94187.16;;;13.58;100.00
16451;BME280;12243;42.708;23.310;2023-04-25T06:30:44;94186.84;;;13.62;100.00
16451;BME280;12243;42.708;23.310;2023-04-25T06:33:16;94186.31;;;13.66;100.00
16451;BME280;12243;42.708;23.310;2023-04-25T06:35:43;94189.88;;;13.90;100.00
16451;BME280;12243;42.708;23.310;2023-04-25T06:38:13;94189.97;;;14.52;100.00
16451;BME280;12243;42.708;23.310;2023-04-25T06:40:44;94190.44;;;15.24;98.62
16451;BME280;12243;42.708;23.310;2023-04-25T06:43:11;94188.28;;;15.81;93.93
16451;BME280;12243;42.708;23.310;2023-04-25T06:45:54;94182.56;;;16.07;91.21
16451;BME280;12243;42.708;23.310;2023-04-25T06:48:24;94191.16;;;16.66;87.33
16451;BME280;12243;42.708;23.310;2023-04-25T06:50:52;94184.91;;;17.25;83.56
16451;BME280;12243;42.708;23.310;2023-04-25T06:53:19;94190.25;;;17.10;81.72
16451;BME280;12243;42.708;23.310;2023-04-25T06:55:51;94183.88;;;16.98;83.12
16451;BME280;12243;42.708;23.310;2023-04-25T06:58:21;94185.53;;;16.70;83.33
16451;BME280;12243;42.708;23.310;2023-04-25T07:01:08;94189.75;;;16.49;83.32
16451;BME280;12243;42.708;23.310;2023-04-25T07:03:35;94189.72;;;16.28;84.49
16451;BME280;12243;42.708;23.310;2023-04-25T07:06:07;94187.56;;;16.02;83.80
16451;BME280;12243;42.708;23.310;2023-04-25T07:08:35;94186.13;;;15.84;85.39
16451;BME280;12243;42.708;23.310;2023-04-25T07:11:02;94196.81;;;15.45;86.96
16451;BME280;12243;42.708;23.310;2023-04-25T07:13:29;94192.38;;;15.45;88.62
16451;BME280;12243;42.708;23.310;2023-04-25T07:15:55;94192.53;;;15.44;88.40
16451;BME280;12243;42.708;23.310;2023-04-25T07:18:24;94186.13;;;15.32;89.13
16451;BME280;12243;42.708;23.310;2023-04-25T07:20:51;94185.81;;;15.27;89.51
16451;BME280;12243;42.708;23.310;2023-04-25T07:23:18;94186.00;;;15.25;89.53
16451;BME280;12243;42.708;23.310;2023-04-25T07:25:46;94179.88;;;15.33;88.86
16451;BME280;12243;42.708;23.310;2023-04-25T07:28:17;94188.75;;;15.46;88.24
16451;BME280;12243;42.708;23.310;2023-04-25T07:30:46;94184.34;;;15.62;88.01
16451;BME280;12243;42.708;23.310;2023-04-25T07:33:13;94179.13;;;16.06;88.01
16451;BME280;12243;42.708;23.310;2023-04-25T07:35:42;94180.09;;;16.50;85.94
16451;BME280;12243;42.708;23.310;2023-04-25T07:38:10;94173.25;;;16.55;84.62
16451;BME280;12243;42.708;23.310;2023-04-25T07:40:37;94176.59;;;16.64;85.76
16451;BME280;12243;42.708;23.310;2023-04-25T07:43:07;94167.06;;;16.78;84.02
16451;BME280;12243;42.708;23.310;2023-04-25T07:45:50;94167.78;;;16.72;83.96
16451;BME280;12243;42.708;23.310;2023-04-25T07:48:19;94171.34;;;16.64;83.92
16451;BME280;12243;42.708;23.310;2023-04-25T07:50:48;94166.25;;;16.62;84.32
16451;BME280;12243;42.708;23.310;2023-04-25T07:53:16;94160.81;;;16.79;83.16
16451;BME280;12243;42.708;23.310;2023-04-25T07:55:50;94162.53;;;16.72;83.65
16451;BME280;12243;42.708;23.310;2023-04-25T07:58:17;94159.69;;;16.73;83.60
16451;BME280;12243;42.708;23.310;2023-04-25T08:00:49;94161.72;;;17.14;83.87
16451;BME280;12243;42.708;23.310;2023-04-25T08:03:28;94157.22;;;17.57;78.90
16451;BME280;12243;42.708;23.310;2023-04-25T08:05:58;94161.91;;;17.90;77.27
16451;BME280;12243;42.708;23.310;2023-04-25T08:08:27;94158.78;;;18.15;75.12
16451;BME280;12243;42.708;23.310;2023-04-25T08:10:55;94157.41;;;18.25;74.55
16451;BME280;12243;42.708;23.310;2023-04-25T08:13:22;94158.53;;;18.51;74.98
16451;BME280;12243;42.708;23.310;2023-04-25T08:15:49;94156.66;;;18.99;73.46
16451;BME280;12243;42.708;23.310;2023-04-25T08:18:16;94141.84;;;19.58;70.59
16451;BME280;12243;42.708;23.310;2023-04-25T08:20:44;94128.72;;;20.16;68.47
16451;BME280;12243;42.708;23.310;2023-04-25T08:23:13;94131.66;;;20.46;68.73
16451;BME280;12243;42.708;23.310;2023-04-25T08:25:51;94135.28;;;20.59;66.40
16451;BME280;12243;42.708;23.310;2023-04-25T08:28:21;94140.81;;;20.57;66.39
16451;BME280;12243;42.708;23.310;2023-04-25T08:30:48;94148.66;;;20.19;68.38
16451;BME280;12243;42.708;23.310;2023-04-25T08:33:17;94153.41;;;19.17;74.42
16451;BME280;12243;42.708;23.310;2023-04-25T08:35:59;94153.44;;;18.01;77.84
16451;BME280;12243;42.708;23.310;2023-04-25T08:38:28;94153.38;;;17.32;83.79
16451;BME280;12243;42.708;23.310;2023-04-25T08:40:56;94165.38;;;16.55;88.77
16451;BME280;12243;42.708;23.310;2023-04-25T08:43:25;94172.19;;;15.99;91.11
16451;BME280;12243;42.708;23.310;2023-04-25T08:45:53;94160.78;;;15.77;87.41
16451;BME280;12243;42.708;23.310;2023-04-25T08:48:46;94154.78;;;15.68;91.05
16451;BME280;12243;42.708;23.310;2023-04-25T08:51:21;94154.69;;;15.91;92.30
16451;BME280;12243;42.708;23.310;2023-04-25T08:53:52;94141.81;;;16.26;88.75
16451;BME280;12243;42.708;23.310;2023-04-25T08:56:19;94140.63;;;16.86;89.31
16451;BME280;12243;42.708;23.310;2023-04-25T08:58:49;94134.84;;;17.47;82.62
16451;BME280;12243;42.708;23.310;2023-04-25T09:01:16;94135.09;;;17.80;80.91
16451;BME280;12243;42.708;23.310;2023-04-25T09:03:49;94131.59;;;18.07;81.75
16451;BME280;12243;42.708;23.310;2023-04-25T09:06:19;94133.28;;;18.22;81.72
16451;BME280;12243;42.708;23.310;2023-04-25T09:08:51;94127.91;;;18.56;79.91
16451;BME280;12243;42.708;23.310;2023-04-25T09:11:18;94123.16;;;18.93;78.53
16451;BME280;12243;42.708;23.310;2023-04-25T09:13:45;94120.53;;;19.20;77.92
16451;BME280;12243;42.708;23.310;2023-04-25T09:16:21;94119.69;;;19.66;77.35
16451;BME280;12243;42.708;23.310;2023-04-25T09:19:21;94112.94;;;20.55;72.39
16451;BME280;12243;42.708;23.310;2023-04-25T09:21:48;94108.69;;;20.85;67.36
16451;BME280;12243;42.708;23.310;2023-04-25T09:24:19;94107.78;;;20.98;67.26
16451;BME280;12243;42.708;23.310;2023-04-25T09:26:56;94112.31;;;21.16;67.60
16451;BME280;12243;42.708;23.310;2023-04-25T09:29:29;94110.69;;;21.47;68.07
16451;BME280;12243;42.708;23.310;2023-04-25T09:32:17;94110.75;;;21.83;67.83
16451;BME280;12243;42.708;23.310;2023-04-25T09:34:48;94104.56;;;22.08;67.01
16451;BME280;12243;42.708;23.310;2023-04-25T09:37:19;94104.22;;;22.23;64.63
16451;BME280;12243;42.708;23.310;2023-04-25T09:40:07;94109.16;;;22.19;64.51
16451;BME280;12243;42.708;23.310;2023-04-25T09:42:48;94104.94;;;22.30;62.12
16451;BME280;12243;42.708;23.310;2023-04-25T09:45:16;94111.19;;;22.54;60.87
16451;BME280;12243;42.708;23.310;2023-04-25T09:47:44;94116.97;;;22.32;61.35
16451;BME280;12243;42.708;23.310;2023-04-25T09:50:18;94114.22;;;21.84;61.56
16451;BME280;12243;42.708;23.310;2023-04-25T09:53:03;94108.22;;;20.88;64.68
16451;BME280;12243;42.708;23.310;2023-04-25T09:55:46;94107.56;;;20.23;66.05
16451;BME280;12243;42.708;23.310;2023-04-25T09:58:13;94109.84;;;20.13;67.62
16451;BME280;12243;42.708;23.310;2023-04-25T10:00:41;94110.88;;;20.57;67.84
16451;BME280;12243;42.708;23.310;2023-04-25T10:03:24;94103.78;;;20.89;66.66
16451;BME280;12243;42.708;23.310;2023-04-25T10:06:19;94107.88;;;21.42;63.46
16451;BME280;12243;42.708;23.310;2023-04-25T10:08:51;94108.19;;;21.52;61.50
16451;BME280;12243;42.708;23.310;2023-04-25T10:11:23;94099.69;;;20.93;63.07
16451;BME280;12243;42.708;23.310;2023-04-25T10:13:52;94096.59;;;20.64;65.87
16451;BME280;12243;42.708;23.310;2023-04-25T10:16:19;94090.47;;;20.64;64.07
16451;BME280;12243;42.708;23.310;2023-04-25T10:18:47;94093.25;;;20.37;64.90
16451;BME280;12243;42.708;23.310;2023-04-25T10:21:15;94107.31;;;20.31;65.95
16451;BME280;12243;42.708;23.310;2023-04-25T10:23:43;94107.94;;;20.27;62.72
16451;BME280;12243;42.708;23.310;2023-04-25T10:26:12;94105.88;;;20.35;62.44
16451;BME280;12243;42.708;23.310;2023-04-25T10:28:57;94093.41;;;20.42;54.98
16451;BME280;12243;42.708;23.310;2023-04-25T10:31:24;94097.28;;;20.02;59.73
16451;BME280;12243;42.708;23.310;2023-04-25T10:33:53;94100.59;;;19.77;60.68
16451;BME280;12243;42.708;23.310;2023-04-25T10:36:21;94113.13;;;18.55;60.73
16451;BME280;12243;42.708;23.310;2023-04-25T10:38:49;94109.38;;;17.47;65.99
16451;BME280;12243;42.708;23.310;2023-04-25T10:41:18;94117.97;;;17.06;71.56
16451;BME280;12243;42.708;23.310;2023-04-25T10:43:46;94122.44;;;16.48;74.16
16451;BME280;12243;42.708;23.310;2023-04-25T10:46:17;94105.22;;;16.09;75.82
16451;BME280;12243;42.708;23.310;2023-04-25T10:48:46;94110.22;;;16.04;77.22
16451;BME280;12243;42.708;23.310;2023-04-25T10:51:21;94103.25;;;16.11;77.74
16451;BME280;12243;42.708;23.310;2023-04-25T10:53:57;94091.03;;;16.61;74.80
16451;BME280;12243;42.708;23.310;2023-04-25T10:56:26;94097.53;;;16.87;71.97
16451;BME280;12243;42.708;23.310;2023-04-25T10:59:05;94093.13;;;17.44;69.82
16451;BME280;12243;42.708;23.310;2023-04-25T11:01:38;94094.91;;;18.13;67.44
16451;BME280;12243;42.708;23.310;2023-04-25T11:04:05;94095.63;;;18.35;66.96
16451;BME280;12243;42.708;23.310;2023-04-25T11:06:44;94087.34;;;18.57;61.02
16451;BME280;12243;42.708;23.310;2023-04-25T11:09:13;94083.97;;;18.77;58.92
16451;BME280;12243;42.708;23.310;2023-04-25T11:11:40;94080.72;;;18.75;56.98
16451;BME280;12243;42.708;23.310;2023-04-25T11:14:07;94077.81;;;18.56;56.14
16451;BME280;12243;42.708;23.310;2023-04-25T11:16:35;94069.16;;;18.83;59.28
16451;BME280;12243;42.708;23.310;2023-04-25T11:19:03;94081.53;;;18.95;61.86
16451;BME280;12243;42.708;23.310;2023-04-25T11:21:30;94076.47;;;18.87;64.21
16451;BME280;12243;42.708;23.310;2023-04-25T11:23:59;94078.69;;;19.03;64.32
16451;BME280;12243;42.708;23.310;2023-04-25T11:26:26;94077.69;;;18.85;62.91
16451;BME280;12243;42.708;23.310;2023-04-25T11:28:57;94073.50;;;18.29;62.40
16451;BME280;12243;42.708;23.310;2023-04-25T11:31:24;94071.53;;;17.90;63.64
16451;BME280;12243;42.708;23.310;2023-04-25T11:33:56;94079.03;;;17.58;63.49
16451;BME280;12243;42.708;23.310;2023-04-25T11:36:24;94098.88;;;17.26;63.98
16451;BME280;12243;42.708;23.310;2023-04-25T11:38:52;94078.16;;;16.88;68.71
16451;BME280;12243;42.708;23.310;2023-04-25T11:41:20;94079.66;;;16.76;73.46
16451;BME280;12243;42.708;23.310;2023-04-25T11:43:48;94082.75;;;16.64;72.40
16451;BME280;12243;42.708;23.310;2023-04-25T11:46:17;94076.94;;;16.48;70.25
16451;BME280;12243;42.708;23.310;2023-04-25T11:48:45;94080.88;;;16.37;68.24
16451;BME280;12243;42.708;23.310;2023-04-25T11:51:14;94073.22;;;16.42;72.14
16451;BME280;12243;42.708;23.310;2023-04-25T11:53:42;94076.13;;;16.47;69.22
16451;BME280;12243;42.708;23.310;2023-04-25T11:56:14;94073.75;;;16.52;72.51
16451;BME280;12243;42.708;23.310;2023-04-25T11:58:58;94067.78;;;17.08;69.73
16451;BME280;12243;42.708;23.310;2023-04-25T12:01:30;94069.50;;;17.92;71.82
16451;BME280;12243;42.708;23.310;2023-04-25T12:03:58;94063.06;;;18.89;64.17
16451;BME280;12243;42.708;23.310;2023-04-25T12:06:29;94055.94;;;19.29;64.67
16451;BME280;12243;42.708;23.310;2023-04-25T12:09:03;94065.88;;;19.54;62.16
16451;BME280;12243;42.708;23.310;2023-04-25T12:11:31;94043.28;;;19.71;56.73
16451;BME280;12243;42.708;23.310;2023-04-25T12:14:02;94050.16;;;19.85;56.72
16451;BME280;12243;42.708;23.310;2023-04-25T12:16:40;94063.41;;;19.45;57.19
16451;BME280;12243;42.708;23.310;2023-04-25T12:19:07;94056.16;;;19.21;59.17
16451;BME280;12243;42.708;23.310;2023-04-25T12:21:35;94061.63;;;19.26;57.74
16451;BME280;12243;42.708;23.310;2023-04-25T12:24:13;94058.38;;;19.11;57.98
16451;BME280;12243;42.708;23.310;2023-04-25T12:26:51;94073.56;;;18.69;56.91
16451;BME280;12243;42.708;23.310;2023-04-25T12:29:19;94101.94;;;17.29;67.78
16451;BME280;12243;42.708;23.310;2023-04-25T12:31:51;94121.34;;;15.47;84.10
16451;BME280;12243;42.708;23.310;2023-04-25T12:34:20;94120.22;;;14.43;93.09
16451;BME280;12243;42.708;23.310;2023-04-25T12:36:50;94126.78;;;13.76;96.27
16451;BME280;12243;42.708;23.310;2023-04-25T12:39:17;94129.53;;;13.19;96.94
16451;BME280;12243;42.708;23.310;2023-04-25T12:41:45;94136.03;;;13.23;100.00
16451;BME280;12243;42.708;23.310;2023-04-25T12:44:12;94137.38;;;13.27;98.70
16451;BME280;12243;42.708;23.310;2023-04-25T12:46:40;94132.97;;;13.36;100.00
16451;BME280;12243;42.708;23.310;2023-04-25T12:49:08;94136.34;;;13.53;100.00
16451;BME280;12243;42.708;23.310;2023-04-25T12:51:35;94133.69;;;13.61;100.00
16451;BME280;12243;42.708;23.310;2023-04-25T12:54:05;94133.66;;;13.69;100.00
16451;BME280;12243;42.708;23.310;2023-04-25T12:56:32;94127.38;;;13.87;100.00
16451;BME280;12243;42.708;23.310;2023-04-25T12:58:59;94128.78;;;14.05;100.00
16451;BME280;12243;42.708;23.310;2023-04-25T13:01:26;94127.34;;;14.26;98.18
16451;BME280;12243;42.708;23.310;2023-04-25T13:03:53;94129.13;;;14.34;97.28
16451;BME280;12243;42.708;23.310;2023-04-25T13:06:21;94131.34;;;14.45;96.52